• Join FlightAware (Why Join?)
  • Login
  • US Flag 
07:47AM EDT


 

Airport Tracker/Info


-or-


 

Live Flight TrackerFlight Track Log ✈ UPS1307 ✈ 17-Oct-2013 ✈ KATL - KPHL

Flight Track Log - Related Links

Times and Time Zones

All times are in EDT time to prevent confusion due to time zone crossing. See the UPS1307 flight status page for this flight to view local times or setup timezone preferences in your user account.

Time Position Orientation Groundspeed Altitude Reporting Facility
EDT Latitude Longitude Course Direction KTS MPH feet Rate Location/Type
10:40PM 33.6453 -84.4606 52° Northeast 447 514 2,700  Level Atlanta Center
10:41PM 33.6681 -84.5206 295° West 238 274 4,700 2,580 Climbing Atlanta Center
10:42PM 33.7167 -84.5833 313° West 279 321 7,700 2,460 Climbing Atlanta TRACON
10:44PM 33.8081 -84.4664 47° Northeast 253 291 12,200 2,460 Climbing Atlanta Center
10:45PM 33.8106 -84.3264 89° East 320 368 15,300 2,520 Climbing Atlanta Center
10:46PM 34.1128 -83.8081 52° Northeast  Level Estimated
10:46PM 33.8253 -84.2214 80° East 350 403 17,300  Level Atlanta Center
10:47PM 33.8547 -84.0689 77° East 413 475 19,700 2,220 Climbing Atlanta Center
10:48PM 33.8839 -83.9211 77° East 444 511 21,800 1,620 Climbing Atlanta Center
10:49PM 33.9192 -83.7508 76° East 466 536 23,000 600 Climbing Atlanta Center
10:50PM 33.9917 -83.6103 58° Northeast 474 545 23,000 300 Level Atlanta Center
10:51PM 34.0747 -83.4819 52° Northeast 479 551 23,700 1,320 Climbing Atlanta Center
10:52PM 34.1597 -83.3458 53° Northeast 490 564 25,700 1,980 Climbing Atlanta Center
10:53PM 34.2464 -83.2119 52° Northeast 503 579 27,700 1,980 Climbing Atlanta Center
10:54PM 34.3372 -83.0628 54° Northeast 528 608 29,700 2,040 Climbing Atlanta Center
10:55PM 34.4256 -82.9156 54° Northeast 539 620 31,800 2,100 Climbing Atlanta Center
10:56PM 34.5139 -82.7733 53° Northeast 544 626 34,000 1,080 Climbing Atlanta Center
10:57PM 34.6042 -82.6231 54° Northeast 544 626 34,000 1,020 Level Atlanta Center
10:58PM 34.6986 -82.4825 51° Northeast 544 626 36,100 1,500 Climbing Atlanta Center
10:59PM 34.7864 -82.3392 53° Northeast 538 619 37,000 420 Climbing Atlanta Center
11:00PM 34.8739 -82.1956 53° Northeast 533 613 37,000  Level Atlanta Center
11:01PM 34.9533 -82.0672 53° Northeast 533 613 37,000  Level Atlanta Center
11:02PM 35.0444 -81.9053 55° Northeast 533 613 37,000  Level Atlanta Center
11:03PM 35.1253 -81.7508 57° Northeast 533 613 37,000  Level Atlanta Center
11:04PM 35.2039 -81.6011 57° Northeast 533 613 37,000  Level Atlanta Center
11:05PM 35.2842 -81.4486 57° Northeast 533 613 37,000  Level Atlanta Center
11:06PM 35.3642 -81.2933 58° Northeast 528 608 37,000  Level Atlanta Center
11:07PM 35.4419 -81.1403 58° Northeast 528 608 37,000  Level Atlanta Center
11:08PM 35.5239 -80.9844 57° Northeast 533 613 37,000  Level Atlanta Center
11:09PM 35.6033 -80.8308 58° Northeast 533 613 37,000  Level Atlanta Center
11:10PM 35.6847 -80.6767 57° Northeast 533 613 37,000  Level Atlanta Center
11:11PM 35.7639 -80.5225 58° Northeast 533 613 37,000  Level Atlanta Center
11:12PM 35.8428 -80.3653 58° Northeast 533 613 37,000  Level Atlanta Center
11:13PM 35.9136 -80.2261 58° Northeast 533 613 37,000  Level Atlanta Center
11:16PM 36.1111 -79.8600 56° Northeast 530 610 37,000  Level Washington Center
11:17PM 36.2000 -79.7131 53° Northeast 540 621 37,000  Level Washington Center
11:18PM 36.2944 -79.5736 50° Northeast 533 613 37,000  Level Washington Center
11:19PM 36.3906 -79.4367 49° Northeast 526 605 37,000  Level Washington Center
11:20PM 36.4889 -79.3019 48° Northeast 526 605 37,000  Level Washington Center
11:21PM 36.5847 -79.1667 49° Northeast 526 605 37,000  Level Washington Center
11:22PM 36.6761 -79.0414 48° Northeast 526 605 37,000  Level Washington Center
11:23PM 36.7717 -78.9031 49° Northeast 526 605 37,000  Level Washington Center
11:24PM 36.8714 -78.7672 47° Northeast 526 605 37,000  Level Washington Center
11:25PM 36.9775 -78.6156 49° Northeast 526 605 37,000  Level Washington Center
11:26PM 37.0769 -78.4764 48° Northeast 526 605 37,000  Level Washington Center
11:27PM 37.1742 -78.3367 49° Northeast 526 605 37,000  Level Washington Center
11:28PM 37.2625 -78.2092 49° Northeast 526 605 37,000  Level Washington Center
11:29PM 37.3678 -78.0586 49° Northeast 526 605 37,000  Level Washington Center
11:30PM 37.4667 -77.9153 49° Northeast 526 605 37,000  Level Washington Center
11:31PM 37.5714 -77.7875 44° Northeast 521 600 37,000  Level Washington Center
11:32PM 37.6900 -77.6781 36° Northeast 515 593 37,000 -120 Level Washington Center
11:33PM 37.8067 -77.5631 38° Northeast 520 598 36,800 -660 Descending Washington Center
11:34PM 37.9047 -77.4236 48° Northeast 525 604 35,800 -1,020 Descending Washington Center
11:35PM 37.9989 -77.2756 51° Northeast 525 604 34,800 -1,020 Descending Washington Center
11:36PM 38.0903 -77.1300 51° Northeast 525 604 33,800 -1,020 Descending Washington Center
11:37PM 38.1817 -76.9864 51° Northeast 530 610 32,800 -1,020 Descending Washington Center
11:38PM 38.2731 -76.8400 51° Northeast 530 610 31,800 -1,260 Descending Washington Center
11:39PM 38.3619 -76.6986 51° Northeast 530 610 30,300 -1,860 Descending Washington Center
11:40PM 38.4550 -76.5542 51° Northeast 525 604 28,100 -2,520 Descending Washington Center
11:41PM 38.5458 -76.4039 52° Northeast 525 604 25,400 -3,060 Descending Washington Center
11:42PM 38.6364 -76.2561 52° Northeast 530 610 22,100 -3,120 Descending Washington Center
11:43PM 38.7203 -76.1211 51° Northeast 538 619 19,300 -3,000 Descending Washington Center
11:44PM 38.8083 -75.9833 51° Northeast 522 601 16,100 -2,220 Descending Washington Center
11:45PM 38.8881 -75.8503 52° Northeast 496 571 14,900 -600 Descending Washington Center
11:46PM 38.9861 -75.7464 39° Northeast 461 531 14,900 -600 Level Washington Center
11:47PM 39.0947 -75.6719 28° Northeast 446 513 13,700 -1,500 Descending Washington Center
11:49PM 39.3667 -75.5833 14° North 414 476 10,000 -1,140 Descending Philadelphia TRACON
11:50PM 39.4500 -75.5167 32° Northeast 410 472 10,000  Level Philadelphia TRACON
11:51PM 39.5333 -75.4167 43° Northeast 370 426 10,000 -360 Level Philadelphia TRACON
11:52PM 39.5833 -75.3167 57° Northeast 318 366 9,300 -1,200 Descending Philadelphia TRACON
11:53PM 39.6000 -75.2167 78° East 316 364 7,700 -2,100 Descending Philadelphia TRACON
11:54PM 39.6333 -75.1000 70° East 304 350 5,200 -2,100 Descending Philadelphia TRACON
11:55PM 39.6833 -75.0333 46° Northeast 291 335 3,600 -1,200 Descending Philadelphia TRACON
11:56PM 39.7500 -74.9833 30° Northeast 287 330 3,000 -360 Descending Philadelphia TRACON
11:57PM 39.8167 -74.9333 30° Northeast 270 311 3,000  Level Philadelphia TRACON
11:58PM 39.8833 -74.9333 360° North 229 264 3,000  Level Philadelphia TRACON
11:59PM 39.9333 -74.9667 333° Northwest 199 229 3,000  Level Philadelphia TRACON
12:00AM 39.9167 -75.0333 252° West 190 219 3,000 -480 Level Philadelphia TRACON
12:01AM 39.9000 -75.0833 247° West 166 191 2,100 -840 Descending Philadelphia TRACON
12:02AM 39.8833 -75.1333 247° West 139 160 1,400 -540 Descending Philadelphia TRACON
12:03AM 39.8833 -75.1833 270° West 101 116 1,100 -480 Descending Philadelphia TRACON
12:04AM 39.8667 -75.2167 237° Southwest 108 124 500 -600 Descending Philadelphia TRACON